createdAt,value
2024-01-09T00:00:32.750Z,1015.27
2024-01-09T00:01:32.625Z,1015.27
2024-01-09T00:02:32.651Z,1015.29
2024-01-09T00:03:32.641Z,1015.25
2024-01-09T00:04:32.596Z,1015.28
2024-01-09T00:05:32.767Z,1015.29
2024-01-09T00:06:32.633Z,1015.29
2024-01-09T00:07:32.551Z,1015.31
2024-01-09T00:08:32.603Z,1015.32
2024-01-09T00:09:32.550Z,1015.29
2024-01-09T00:10:32.514Z,1015.25
2024-01-09T00:11:32.542Z,1015.31
2024-01-09T00:12:32.537Z,1015.29
2024-01-09T00:13:32.488Z,1015.30
2024-01-09T00:14:32.514Z,1015.26
2024-01-09T00:15:32.510Z,1015.30
2024-01-09T00:16:32.492Z,1015.29
2024-01-09T00:17:32.526Z,1015.26
2024-01-09T00:18:32.514Z,1015.28
2024-01-09T00:19:34.530Z,1015.30
2024-01-09T00:20:32.434Z,1015.29
2024-01-09T00:21:32.428Z,1015.26
2024-01-09T00:22:32.389Z,1015.31
2024-01-09T00:23:32.469Z,1015.30
2024-01-09T00:24:32.392Z,1015.26
2024-01-09T00:25:32.368Z,1015.31
2024-01-09T00:26:32.390Z,1015.32
2024-01-09T00:27:32.353Z,1015.29
2024-01-09T00:28:32.343Z,1015.26
2024-01-09T00:29:32.413Z,1015.27
2024-01-09T00:30:32.382Z,1015.28
2024-01-09T00:31:32.335Z,1015.26
2024-01-09T00:32:32.434Z,1015.27
2024-01-09T00:33:32.360Z,1015.22
2024-01-09T00:34:32.351Z,1015.19
2024-01-09T00:35:32.333Z,1015.24
2024-01-09T00:36:32.244Z,1015.22
2024-01-09T00:37:32.245Z,1015.20
2024-01-09T00:38:32.267Z,1015.15
2024-01-09T00:39:32.241Z,1015.19
2024-01-09T00:40:32.241Z,1015.20
2024-01-09T00:41:32.255Z,1015.13
2024-01-09T00:42:32.189Z,1015.15
2024-01-09T00:43:32.200Z,1015.13
2024-01-09T00:44:32.207Z,1015.15
2024-01-09T00:45:33.671Z,1015.12
2024-01-09T00:46:32.195Z,1015.14
2024-01-09T00:47:32.250Z,1015.14
2024-01-09T00:48:32.381Z,1015.10
2024-01-09T00:49:32.293Z,1015.13
2024-01-09T00:50:32.183Z,1015.07
2024-01-09T00:51:32.111Z,1015.05
2024-01-09T00:52:32.119Z,1015.12
2024-01-09T00:53:32.128Z,1015.09
2024-01-09T00:54:32.079Z,1015.12
2024-01-09T00:55:32.062Z,1015.12
2024-01-09T00:56:32.088Z,1015.13
2024-01-09T00:57:32.067Z,1015.14
2024-01-09T00:58:32.047Z,1015.10
2024-01-09T00:59:32.137Z,1015.15
2024-01-09T01:00:32.019Z,1015.14
2024-01-09T01:01:32.011Z,1015.18
2024-01-09T01:02:32.104Z,1015.19
2024-01-09T01:03:32.052Z,1015.17
2024-01-09T01:04:32.016Z,1015.14
2024-01-09T01:05:32.065Z,1015.17
2024-01-09T01:06:31.985Z,1015.19
2024-01-09T01:07:32.016Z,1015.18
2024-01-09T01:08:31.953Z,1015.19
2024-01-09T01:09:31.915Z,1015.17
2024-01-09T01:10:31.903Z,1015.18
2024-01-09T01:11:31.929Z,1015.24
2024-01-09T01:12:31.898Z,1015.21
2024-01-09T01:13:31.859Z,1015.21
2024-01-09T01:14:31.948Z,1015.19
2024-01-09T01:15:31.854Z,1015.25
2024-01-09T01:16:31.857Z,1015.25
2024-01-09T01:17:31.939Z,1015.23
2024-01-09T01:18:31.893Z,1015.22
2024-01-09T01:19:31.893Z,1015.28
2024-01-09T01:20:31.825Z,1015.29
2024-01-09T01:21:31.776Z,1015.29
2024-01-09T01:22:31.769Z,1015.29
2024-01-09T01:23:31.780Z,1015.31
2024-01-09T01:24:31.768Z,1015.29
2024-01-09T01:25:31.735Z,1015.27
2024-01-09T01:26:31.779Z,1015.30
2024-01-09T01:27:31.787Z,1015.29
2024-01-09T01:28:31.735Z,1015.27
2024-01-09T01:29:31.727Z,1015.27
2024-01-09T01:30:31.786Z,1015.26
2024-01-09T01:31:31.672Z,1015.29
2024-01-09T01:32:31.773Z,1015.37
2024-01-09T01:33:31.824Z,1015.37
2024-01-09T01:34:31.733Z,1015.35
2024-01-09T01:35:31.671Z,1015.35
2024-01-09T01:36:31.653Z,1015.37
2024-01-09T01:37:31.601Z,1015.36
2024-01-09T01:38:31.626Z,1015.38
2024-01-09T01:39:31.620Z,1015.37
2024-01-09T01:40:31.581Z,1015.30
2024-01-09T01:41:31.670Z,1015.32
2024-01-09T01:42:31.584Z,1015.28
2024-01-09T01:43:31.548Z,1015.31
2024-01-09T01:44:31.581Z,1015.29
2024-01-09T01:45:31.529Z,1015.27
2024-01-09T01:46:31.539Z,1015.28
2024-01-09T01:47:31.579Z,1015.29
2024-01-09T01:48:31.629Z,1015.28
2024-01-09T01:49:31.568Z,1015.29
2024-01-09T01:50:31.526Z,1015.29
2024-01-09T01:51:31.499Z,1015.30
2024-01-09T01:52:31.479Z,1015.28
2024-01-09T01:53:31.456Z,1015.26
2024-01-09T01:54:31.462Z,1015.26
2024-01-09T01:55:31.450Z,1015.27
2024-01-09T01:56:31.439Z,1015.25
2024-01-09T01:57:31.411Z,1015.23
2024-01-09T01:58:31.405Z,1015.23
2024-01-09T01:59:31.418Z,1015.20
2024-01-09T02:00:31.480Z,1015.18
2024-01-09T02:01:31.362Z,1015.18
2024-01-09T02:02:31.388Z,1015.24
2024-01-09T02:03:31.358Z,1015.20
2024-01-09T02:04:32.064Z,1015.19
2024-01-09T02:05:31.394Z,1015.15
2024-01-09T02:06:31.426Z,1015.16
2024-01-09T02:07:31.319Z,1015.11
2024-01-09T02:08:31.389Z,1015.14
2024-01-09T02:09:31.276Z,1015.11
2024-01-09T02:10:31.272Z,1015.12
2024-01-09T02:11:31.293Z,1015.14
2024-01-09T02:12:31.264Z,1015.11
2024-01-09T02:13:31.239Z,1015.14
2024-01-09T02:14:31.299Z,1015.18
2024-01-09T02:15:31.233Z,1015.22
2024-01-09T02:16:31.205Z,1015.19
2024-01-09T02:17:32.439Z,1015.17
2024-01-09T02:18:31.294Z,1015.16
2024-01-09T02:19:31.294Z,1015.19
2024-01-09T02:20:31.194Z,1015.28
2024-01-09T02:21:31.148Z,1015.21
2024-01-09T02:22:31.140Z,1015.28
2024-01-09T02:23:31.164Z,1015.27
2024-01-09T02:24:31.967Z,1015.25
2024-01-09T02:25:31.118Z,1015.27
2024-01-09T02:26:45.762Z,1015.23
2024-01-09T02:27:32.172Z,1015.22
2024-01-09T02:28:31.100Z,1015.20
2024-01-09T02:29:31.117Z,1015.23
2024-01-09T02:30:31.136Z,1015.21
2024-01-09T02:31:31.069Z,1015.20
2024-01-09T02:32:31.143Z,1015.18
2024-01-09T02:33:31.181Z,1015.20
2024-01-09T02:34:31.268Z,1015.17
2024-01-09T02:35:31.062Z,1015.10
2024-01-09T02:36:31.041Z,1015.14
2024-01-09T02:37:30.996Z,1015.09
2024-01-09T02:38:31.016Z,1015.04
2024-01-09T02:39:30.998Z,1015.10
2024-01-09T02:40:31.541Z,1015.09
2024-01-09T02:41:30.944Z,1015.12
2024-01-09T02:42:30.961Z,1015.09
2024-01-09T02:43:30.929Z,1015.08
2024-01-09T02:44:30.942Z,1015.12
2024-01-09T02:45:30.938Z,1015.09
2024-01-09T02:46:30.897Z,1015.11
2024-01-09T02:47:31.053Z,1015.08
2024-01-09T02:48:31.088Z,1015.10
2024-01-09T02:49:30.906Z,1015.12
2024-01-09T02:50:30.929Z,1015.06
2024-01-09T02:51:30.870Z,1015.11
2024-01-09T02:52:30.864Z,1015.08
2024-01-09T02:53:30.870Z,1015.12
2024-01-09T02:54:30.845Z,1015.08
2024-01-09T02:55:30.828Z,1015.10
2024-01-09T02:56:30.823Z,1015.08
2024-01-09T02:57:30.781Z,1015.03
2024-01-09T02:58:30.787Z,1015.04
2024-01-09T02:59:30.781Z,1015.07
2024-01-09T03:00:30.785Z,1015.06
2024-01-09T03:01:30.744Z,1015.06
2024-01-09T03:02:30.829Z,1015.01
2024-01-09T03:03:30.847Z,1015.03
2024-01-09T03:04:30.739Z,1015.02
2024-01-09T03:05:33.175Z,1015.05
2024-01-09T03:06:30.926Z,1015.06
2024-01-09T03:07:30.989Z,1015.04
2024-01-09T03:08:30.717Z,1015.13
2024-01-09T03:09:30.672Z,1015.09
2024-01-09T03:10:30.701Z,1015.11
2024-01-09T03:11:31.582Z,1015.06
2024-01-09T03:12:30.645Z,1015.09
2024-01-09T03:13:30.609Z,1015.12
2024-01-09T03:14:30.689Z,1015.09
2024-01-09T03:15:30.598Z,1015.10
2024-01-09T03:16:30.584Z,1015.07
2024-01-09T03:17:30.656Z,1015.00
2024-01-09T03:18:30.746Z,1015.06
2024-01-09T03:19:30.582Z,1015.04
2024-01-09T03:20:30.571Z,1015.01
2024-01-09T03:21:30.526Z,1015.04
2024-01-09T03:22:30.536Z,1015.06
2024-01-09T03:23:30.561Z,1015.07
2024-01-09T03:24:30.521Z,1015.02
2024-01-09T03:25:30.495Z,1015.05
2024-01-09T03:26:30.542Z,1015.03
2024-01-09T03:27:30.497Z,1015.06
2024-01-09T03:28:30.464Z,1015.08
2024-01-09T03:29:30.509Z,1015.15
2024-01-09T03:30:30.471Z,1015.14
2024-01-09T03:31:30.425Z,1015.13
2024-01-09T03:32:30.481Z,1015.14
2024-01-09T03:33:30.488Z,1015.09
2024-01-09T03:34:30.490Z,1015.08
2024-01-09T03:35:30.456Z,1015.03
2024-01-09T03:36:30.370Z,1014.99
2024-01-09T03:37:30.387Z,1014.97
2024-01-09T03:38:30.424Z,1014.98
2024-01-09T03:39:30.343Z,1015.03
2024-01-09T03:40:30.350Z,1015.00
2024-01-09T03:41:30.377Z,1015.01
2024-01-09T03:42:30.308Z,1014.98
2024-01-09T03:43:30.340Z,1015.03
2024-01-09T03:44:30.311Z,1014.96
2024-01-09T03:45:30.293Z,1014.93
2024-01-09T03:46:30.275Z,1014.94
2024-01-09T03:47:30.366Z,1014.94
2024-01-09T03:48:30.286Z,1014.96
2024-01-09T03:49:30.280Z,1014.88
2024-01-09T03:50:30.275Z,1014.90
2024-01-09T03:51:30.268Z,1014.94
2024-01-09T03:52:30.211Z,1014.96
2024-01-09T03:53:30.240Z,1014.97
2024-01-09T03:54:30.194Z,1014.93
2024-01-09T03:55:30.194Z,1014.95
2024-01-09T03:56:30.198Z,1014.96
2024-01-09T03:57:30.196Z,1014.92
2024-01-09T03:58:30.150Z,1014.92
2024-01-09T03:59:30.183Z,1014.89
2024-01-09T04:00:30.146Z,1014.86
2024-01-09T04:01:30.111Z,1014.85
2024-01-09T04:02:30.198Z,1014.92
2024-01-09T04:03:30.131Z,1014.85
2024-01-09T04:04:30.091Z,1014.90
2024-01-09T04:05:30.147Z,1014.92
2024-01-09T04:06:30.174Z,1014.92
2024-01-09T04:07:30.052Z,1014.86
2024-01-09T04:08:30.089Z,1014.91
2024-01-09T04:09:30.046Z,1014.92
2024-01-09T04:10:30.033Z,1014.87
2024-01-09T04:11:30.085Z,1014.90
2024-01-09T04:12:30.033Z,1014.84
2024-01-09T04:13:30.010Z,1014.84
2024-01-09T04:14:30.015Z,1014.87
2024-01-09T04:15:29.989Z,1014.80
2024-01-09T04:16:29.957Z,1014.89
2024-01-09T04:17:30.112Z,1014.91
2024-01-09T04:18:30.100Z,1014.91
2024-01-09T04:19:29.990Z,1014.92
2024-01-09T04:20:29.996Z,1014.94
2024-01-09T04:21:29.916Z,1014.93
2024-01-09T04:22:29.928Z,1014.94
2024-01-09T04:23:29.951Z,1014.98
2024-01-09T04:24:29.898Z,1014.95
2024-01-09T04:25:29.867Z,1015.06
2024-01-09T04:26:29.913Z,1015.03
2024-01-09T04:27:29.892Z,1014.95
2024-01-09T04:28:29.842Z,1014.96
2024-01-09T04:29:29.872Z,1015.06
2024-01-09T04:30:29.867Z,1015.01
2024-01-09T04:31:29.831Z,1015.02
2024-01-09T04:32:29.869Z,1015.00
2024-01-09T04:33:29.909Z,1015.07
2024-01-09T04:34:29.827Z,1015.08
2024-01-09T04:35:29.798Z,1015.09
2024-01-09T04:36:29.804Z,1015.06
2024-01-09T04:37:29.767Z,1015.10
2024-01-09T04:38:29.790Z,1015.09
2024-01-09T04:39:29.717Z,1015.13
2024-01-09T04:40:29.714Z,1015.13
2024-01-09T04:41:29.742Z,1015.11
2024-01-09T04:42:29.709Z,1015.08
2024-01-09T04:43:29.678Z,1015.06
2024-01-09T04:44:29.728Z,1015.04
2024-01-09T04:45:29.725Z,1015.03
2024-01-09T04:46:29.657Z,1015.03
2024-01-09T04:47:29.777Z,1015.01
2024-01-09T04:48:29.862Z,1015.03
2024-01-09T04:49:30.589Z,1015.07
2024-01-09T04:50:29.720Z,1014.94
2024-01-09T04:51:29.611Z,1014.93
2024-01-09T04:52:29.587Z,1014.97
2024-01-09T04:53:29.624Z,1014.95
2024-01-09T04:54:29.593Z,1014.95
2024-01-09T04:55:29.559Z,1014.95
2024-01-09T04:56:29.605Z,1014.94
2024-01-09T04:57:29.547Z,1014.91
2024-01-09T04:58:29.521Z,1014.90
2024-01-09T04:59:29.561Z,1014.98
2024-01-09T05:00:29.538Z,1014.90
2024-01-09T05:01:29.510Z,1014.96
2024-01-09T05:02:29.691Z,1014.91
2024-01-09T05:03:29.594Z,1014.94
2024-01-09T05:04:29.481Z,1014.93
2024-01-09T05:05:29.499Z,1014.89
2024-01-09T05:06:29.517Z,1014.83
2024-01-09T05:07:29.431Z,1014.91
2024-01-09T05:08:29.448Z,1014.91
2024-01-09T05:09:29.408Z,1014.86
2024-01-09T05:10:29.399Z,1014.87
2024-01-09T05:11:29.480Z,1014.87
2024-01-09T05:12:29.381Z,1014.84
2024-01-09T05:13:29.366Z,1014.85
2024-01-09T05:14:29.420Z,1014.86
2024-01-09T05:15:29.343Z,1014.87
2024-01-09T05:16:29.374Z,1014.90
2024-01-09T05:17:29.552Z,1014.89
2024-01-09T05:18:29.428Z,1014.87
2024-01-09T05:19:29.431Z,1014.86
2024-01-09T05:20:29.341Z,1014.88
2024-01-09T05:21:29.308Z,1014.92
2024-01-09T05:22:29.289Z,1014.88
2024-01-09T05:23:29.280Z,1014.84
2024-01-09T05:24:29.252Z,1014.83
2024-01-09T05:25:29.249Z,1014.83
2024-01-09T05:26:29.306Z,1014.83
2024-01-09T05:27:29.254Z,1014.83
2024-01-09T05:28:29.251Z,1014.90
2024-01-09T05:29:29.297Z,1014.87
2024-01-09T05:30:29.270Z,1014.88
2024-01-09T05:31:29.388Z,1014.93
2024-01-09T05:32:29.329Z,1014.90
2024-01-09T05:33:29.344Z,1014.92
2024-01-09T05:34:29.276Z,1014.90
2024-01-09T05:35:29.209Z,1014.89
2024-01-09T05:36:29.149Z,1014.89
2024-01-09T05:37:29.136Z,1014.89
2024-01-09T05:38:29.148Z,1014.89
2024-01-09T05:39:29.116Z,1014.86
2024-01-09T05:40:29.339Z,1014.86
2024-01-09T05:41:29.162Z,1014.89
2024-01-09T05:42:29.091Z,1014.84
2024-01-09T05:43:29.065Z,1014.83
2024-01-09T05:44:29.086Z,1014.88
2024-01-09T05:45:29.046Z,1014.90
2024-01-09T05:46:29.077Z,1014.91
2024-01-09T05:47:29.100Z,1014.92
2024-01-09T05:48:29.121Z,1014.95
2024-01-09T05:49:29.079Z,1014.93
2024-01-09T05:50:29.052Z,1014.93
2024-01-09T05:51:29.018Z,1014.90
2024-01-09T05:52:28.958Z,1014.90
2024-01-09T05:53:29.008Z,1014.90
2024-01-09T05:54:28.969Z,1014.93
2024-01-09T05:55:28.945Z,1014.92
2024-01-09T05:56:28.943Z,1014.88
2024-01-09T05:57:28.944Z,1014.85
2024-01-09T05:58:28.901Z,1014.88
2024-01-09T05:59:28.948Z,1014.83
2024-01-09T06:00:28.888Z,1014.82
2024-01-09T06:01:28.894Z,1014.77
2024-01-09T06:02:28.923Z,1014.78
2024-01-09T06:03:28.927Z,1014.81
2024-01-09T06:04:28.843Z,1014.80
2024-01-09T06:05:28.942Z,1014.80
2024-01-09T06:06:28.955Z,1014.82
2024-01-09T06:07:28.838Z,1014.81
2024-01-09T06:08:35.898Z,1014.82
2024-01-09T06:09:28.798Z,1014.83
2024-01-09T06:10:28.787Z,1014.87
2024-01-09T06:11:28.808Z,1014.87
2024-01-09T06:12:28.807Z,1014.85
2024-01-09T06:13:28.768Z,1014.84
2024-01-09T06:14:28.762Z,1014.92
2024-01-09T06:15:28.735Z,1014.88
2024-01-09T06:16:28.724Z,1014.87
2024-01-09T06:17:28.768Z,1014.90
2024-01-09T06:18:28.984Z,1014.87
2024-01-09T06:19:28.783Z,1014.90
2024-01-09T06:20:28.704Z,1014.93
2024-01-09T06:21:28.678Z,1014.88
2024-01-09T06:22:28.681Z,1014.91
2024-01-09T06:23:28.767Z,1014.90
2024-01-09T06:24:28.683Z,1014.96
2024-01-09T06:25:28.661Z,1014.90
2024-01-09T06:26:28.732Z,1014.94
2024-01-09T06:27:28.626Z,1014.93
2024-01-09T06:28:28.609Z,1014.95
2024-01-09T06:29:28.664Z,1014.96
2024-01-09T06:30:28.696Z,1015.01
2024-01-09T06:31:28.639Z,1014.95
2024-01-09T06:32:28.669Z,1015.02
2024-01-09T06:33:28.728Z,1014.99
2024-01-09T06:34:28.559Z,1014.96
2024-01-09T06:35:28.615Z,1015.02
2024-01-09T06:36:31.382Z,1015.06
2024-01-09T06:37:28.544Z,1015.01
2024-01-09T06:38:28.569Z,1015.01
2024-01-09T06:39:28.535Z,1014.95
2024-01-09T06:40:28.495Z,1014.96
2024-01-09T06:41:28.526Z,1014.95
2024-01-09T06:42:28.499Z,1014.97
2024-01-09T06:43:28.460Z,1014.93
2024-01-09T06:44:28.448Z,1014.96
2024-01-09T06:45:28.509Z,1014.87
2024-01-09T06:46:28.408Z,1014.91
2024-01-09T06:47:28.481Z,1014.89
2024-01-09T06:48:28.640Z,1014.96
2024-01-09T06:49:28.408Z,1014.95
2024-01-09T06:50:34.029Z,1014.95
2024-01-09T06:51:29.598Z,1014.96
2024-01-09T06:52:28.367Z,1014.95
2024-01-09T06:53:28.368Z,1014.92
2024-01-09T06:54:28.351Z,1014.89
2024-01-09T06:55:28.369Z,1014.90
2024-01-09T06:56:28.362Z,1014.89
2024-01-09T06:57:28.329Z,1014.90
2024-01-09T06:58:28.292Z,1014.88
2024-01-09T06:59:28.305Z,1014.92
2024-01-09T07:00:28.308Z,1014.91
2024-01-09T07:01:28.291Z,1014.90
2024-01-09T07:02:28.277Z,1014.93
2024-01-09T07:03:28.294Z,1014.92
2024-01-09T07:04:28.363Z,1014.88
2024-01-09T07:05:28.330Z,1014.95
2024-01-09T07:06:28.268Z,1014.95
2024-01-09T07:07:34.818Z,1014.87
2024-01-09T07:08:29.205Z,1014.90
2024-01-09T07:09:28.190Z,1014.91
2024-01-09T07:10:28.198Z,1014.90
2024-01-09T07:11:28.217Z,1014.91
2024-01-09T07:12:28.178Z,1014.90
2024-01-09T07:13:28.166Z,1014.88
2024-01-09T07:14:28.211Z,1014.90
2024-01-09T07:15:28.259Z,1014.89
2024-01-09T07:16:28.126Z,1014.89
2024-01-09T07:17:28.204Z,1014.97
2024-01-09T07:18:28.198Z,1014.96
2024-01-09T07:19:28.117Z,1014.99
2024-01-09T07:20:28.113Z,1015.00
2024-01-09T07:21:28.051Z,1015.02
2024-01-09T07:22:28.065Z,1015.01
2024-01-09T07:23:28.129Z,1014.99
2024-01-09T07:24:28.035Z,1015.06
2024-01-09T07:25:28.014Z,1015.10
2024-01-09T07:26:28.029Z,1015.09
2024-01-09T07:27:28.109Z,1015.12
2024-01-09T07:28:30.826Z,1015.12
2024-01-09T07:29:27.997Z,1015.17
2024-01-09T07:30:28.036Z,1015.17
2024-01-09T07:31:27.960Z,1015.23
2024-01-09T07:32:28.036Z,1015.25
2024-01-09T07:33:28.156Z,1015.29
2024-01-09T07:34:27.999Z,1015.29
2024-01-09T07:35:27.940Z,1015.34
2024-01-09T07:36:27.905Z,1015.36
2024-01-09T07:37:27.894Z,1015.33
2024-01-09T07:38:27.896Z,1015.33
2024-01-09T07:39:27.903Z,1015.32
2024-01-09T07:40:27.943Z,1015.30
2024-01-09T07:41:27.896Z,1015.33
2024-01-09T07:42:27.842Z,1015.37
2024-01-09T07:43:27.895Z,1015.34
2024-01-09T07:44:27.859Z,1015.35
2024-01-09T07:45:27.818Z,1015.38
2024-01-09T07:46:27.794Z,1015.36
2024-01-09T07:47:27.833Z,1015.31
2024-01-09T07:48:27.947Z,1015.33
2024-01-09T07:49:27.820Z,1015.32
2024-01-09T07:50:27.826Z,1015.32
2024-01-09T07:51:27.776Z,1015.33
2024-01-09T07:52:27.746Z,1015.33
2024-01-09T07:53:27.800Z,1015.39
2024-01-09T07:54:27.723Z,1015.34
2024-01-09T07:55:27.717Z,1015.35
2024-01-09T07:56:27.716Z,1015.40
2024-01-09T07:58:27.727Z,1015.41
2024-01-09T07:59:27.719Z,1015.46
2024-01-09T08:00:27.717Z,1015.44
2024-01-09T08:01:27.657Z,1015.48
2024-01-09T08:02:27.700Z,1015.47
2024-01-09T08:03:27.814Z,1015.49
2024-01-09T08:04:27.637Z,1015.52
2024-01-09T08:05:28.530Z,1015.48
2024-01-09T08:06:27.687Z,1015.44
2024-01-09T08:07:27.609Z,1015.45
2024-01-09T08:08:27.627Z,1015.47
2024-01-09T08:09:27.585Z,1015.45
2024-01-09T08:10:27.574Z,1015.44
2024-01-09T08:11:27.578Z,1015.42
2024-01-09T08:12:27.546Z,1015.38
2024-01-09T08:13:27.563Z,1015.39
2024-01-09T08:14:27.556Z,1015.37
2024-01-09T08:15:27.517Z,1015.40
2024-01-09T08:16:27.508Z,1015.39
2024-01-09T08:17:27.613Z,1015.33
2024-01-09T08:18:27.682Z,1015.35
2024-01-09T08:19:27.526Z,1015.33
2024-01-09T08:20:27.504Z,1015.33
2024-01-09T08:21:27.444Z,1015.30
2024-01-09T08:22:27.427Z,1015.29
2024-01-09T08:23:27.478Z,1015.23
2024-01-09T08:24:27.420Z,1015.31
2024-01-09T08:25:27.424Z,1015.33
2024-01-09T08:26:27.412Z,1015.29
2024-01-09T08:27:27.388Z,1015.36
2024-01-09T08:28:27.419Z,1015.35
2024-01-09T08:29:27.363Z,1015.35
2024-01-09T08:30:28.439Z,1015.34
2024-01-09T08:31:27.381Z,1015.40
2024-01-09T08:32:27.418Z,1015.36
2024-01-09T08:33:29.224Z,1015.37
2024-01-09T08:34:27.465Z,1015.31
2024-01-09T08:35:27.365Z,1015.39
2024-01-09T08:36:27.287Z,1015.41
2024-01-09T08:37:27.291Z,1015.39
2024-01-09T08:38:27.293Z,1015.42
2024-01-09T08:39:27.287Z,1015.46
2024-01-09T08:40:27.282Z,1015.47
2024-01-09T08:41:27.282Z,1015.43
2024-01-09T08:42:27.229Z,1015.38
2024-01-09T08:43:27.213Z,1015.39
2024-01-09T08:44:27.226Z,1015.38
2024-01-09T08:45:27.209Z,1015.42
2024-01-09T08:46:27.208Z,1015.41
2024-01-09T08:47:27.286Z,1015.38
2024-01-09T08:48:27.324Z,1015.39
2024-01-09T08:49:27.252Z,1015.38
2024-01-09T08:50:27.190Z,1015.42
2024-01-09T08:51:28.953Z,1015.49
2024-01-09T08:52:27.203Z,1015.47
2024-01-09T08:53:27.134Z,1015.40
2024-01-09T08:54:27.194Z,1015.45
2024-01-09T08:55:27.106Z,1015.45
2024-01-09T08:56:27.142Z,1015.54
2024-01-09T08:57:27.092Z,1015.56
2024-01-09T08:58:27.060Z,1015.53
2024-01-09T08:59:27.126Z,1015.59
2024-01-09T09:00:27.046Z,1015.56
2024-01-09T09:01:27.105Z,1015.59
2024-01-09T09:02:27.096Z,1015.55
2024-01-09T09:03:27.243Z,1015.58
2024-01-09T09:04:27.043Z,1015.63
2024-01-09T09:05:27.114Z,1015.58
2024-01-09T09:06:27.147Z,1015.58
2024-01-09T09:07:26.976Z,1015.61
2024-01-09T09:08:27.175Z,1015.61
2024-01-09T09:09:26.959Z,1015.61
2024-01-09T09:10:26.967Z,1015.58
2024-01-09T09:11:26.989Z,1015.56
2024-01-09T09:12:26.934Z,1015.53
2024-01-09T09:13:26.978Z,1015.52
2024-01-09T09:14:26.932Z,1015.52
2024-01-09T09:15:26.917Z,1015.51
2024-01-09T09:16:26.874Z,1015.47
2024-01-09T09:17:26.938Z,1015.53
2024-01-09T09:18:27.067Z,1015.52
2024-01-09T09:19:26.918Z,1015.49
2024-01-09T09:20:26.930Z,1015.47
2024-01-09T09:21:26.850Z,1015.47
2024-01-09T09:22:26.831Z,1015.46
2024-01-09T09:23:26.847Z,1015.50
2024-01-09T09:24:26.811Z,1015.50
2024-01-09T09:25:26.788Z,1015.49
2024-01-09T09:26:26.847Z,1015.49
2024-01-09T09:27:26.788Z,1015.51
2024-01-09T09:28:33.773Z,1015.54
2024-01-09T09:29:36.541Z,1015.57
2024-01-09T09:30:27.777Z,1015.55
2024-01-09T09:31:26.948Z,1015.60
2024-01-09T09:32:26.812Z,1015.57
2024-01-09T09:33:26.814Z,1015.58
2024-01-09T09:34:26.751Z,1015.63
2024-01-09T09:35:26.747Z,1015.55
2024-01-09T09:36:26.682Z,1015.58
2024-01-09T09:37:26.670Z,1015.59
2024-01-09T09:38:26.695Z,1015.57
2024-01-09T09:39:26.683Z,1015.58
2024-01-09T09:40:26.658Z,1015.54
2024-01-09T09:41:26.614Z,1015.53
2024-01-09T09:42:26.615Z,1015.54
2024-01-09T09:43:26.609Z,1015.57
2024-01-09T09:44:26.717Z,1015.61
2024-01-09T09:45:26.606Z,1015.53
2024-01-09T09:46:26.571Z,1015.63
2024-01-09T09:47:26.610Z,1015.59
2024-01-09T09:48:26.833Z,1015.62
2024-01-09T09:49:26.724Z,1015.58
2024-01-09T09:50:26.776Z,1015.52
2024-01-09T09:51:27.497Z,1015.48
2024-01-09T09:52:26.525Z,1015.47
2024-01-09T09:53:26.517Z,1015.45
2024-01-09T09:54:26.509Z,1015.45
2024-01-09T09:55:26.466Z,1015.43
2024-01-09T09:56:26.486Z,1015.40
2024-01-09T09:57:26.455Z,1015.42
2024-01-09T09:58:26.454Z,1015.35
2024-01-09T09:59:26.467Z,1015.39
2024-01-09T10:00:26.417Z,1015.40
2024-01-09T10:01:26.455Z,1015.38
2024-01-09T10:02:27.004Z,1015.36
2024-01-09T10:03:26.451Z,1015.40
2024-01-09T10:04:26.369Z,1015.35
2024-01-09T10:05:26.413Z,1015.37
2024-01-09T10:06:26.508Z,1015.39
2024-01-09T10:07:26.382Z,1015.37
2024-01-09T10:08:26.455Z,1015.34
2024-01-09T10:09:26.354Z,1015.30
2024-01-09T10:10:26.333Z,1015.32
2024-01-09T10:11:26.333Z,1015.34
2024-01-09T10:12:26.671Z,1015.36
2024-01-09T10:13:26.293Z,1015.27
2024-01-09T10:14:26.295Z,1015.31
2024-01-09T10:15:26.277Z,1015.30
2024-01-09T10:16:26.241Z,1015.30
2024-01-09T10:17:26.310Z,1015.29
2024-01-09T10:18:26.466Z,1015.31
2024-01-09T10:19:26.259Z,1015.21
2024-01-09T10:20:26.819Z,1015.23
2024-01-09T10:21:26.190Z,1015.21
2024-01-09T10:22:26.188Z,1015.18
2024-01-09T10:23:26.231Z,1015.13
2024-01-09T10:24:26.201Z,1015.21
2024-01-09T10:25:26.187Z,1015.16
2024-01-09T10:26:26.176Z,1015.21
2024-01-09T10:27:26.129Z,1015.15
2024-01-09T10:28:26.145Z,1015.12
2024-01-09T10:29:26.162Z,1015.13
2024-01-09T10:30:26.214Z,1015.13
2024-01-09T10:31:26.082Z,1015.15
2024-01-09T10:32:26.202Z,1015.14
2024-01-09T10:33:26.292Z,1015.09
2024-01-09T10:34:26.107Z,1015.09
2024-01-09T10:35:26.086Z,1015.05
2024-01-09T10:36:26.056Z,1015.07
2024-01-09T10:37:26.029Z,1015.07
2024-01-09T10:38:26.118Z,1015.05
2024-01-09T10:39:26.014Z,1015.08
2024-01-09T10:40:26.010Z,1015.08
2024-01-09T10:41:26.038Z,1015.05
2024-01-09T10:42:25.962Z,1015.04
2024-01-09T10:43:26.015Z,1014.99
2024-01-09T10:44:25.974Z,1015.06
2024-01-09T10:45:26.072Z,1015.04
2024-01-09T10:46:25.919Z,1014.99
2024-01-09T10:47:25.991Z,1014.94
2024-01-09T10:48:26.009Z,1014.98
2024-01-09T10:49:25.979Z,1015.00
2024-01-09T10:50:25.905Z,1015.00
2024-01-09T10:51:25.874Z,1014.95
2024-01-09T10:52:25.861Z,1014.96
2024-01-09T10:53:25.950Z,1015.01
2024-01-09T10:54:25.849Z,1014.99
2024-01-09T10:55:25.902Z,1014.98
2024-01-09T10:56:25.906Z,1014.96
2024-01-09T10:57:25.820Z,1014.95
2024-01-09T10:58:25.807Z,1014.94
2024-01-09T10:59:25.813Z,1014.94
2024-01-09T11:00:25.786Z,1014.90
2024-01-09T11:01:25.844Z,1014.84
2024-01-09T11:02:25.852Z,1014.89
2024-01-09T11:03:26.088Z,1014.87
2024-01-09T11:04:25.731Z,1014.86
2024-01-09T11:05:25.838Z,1014.82
2024-01-09T11:06:25.930Z,1014.82
2024-01-09T11:07:25.728Z,1014.85
2024-01-09T11:08:25.737Z,1014.83
2024-01-09T11:09:25.724Z,1014.87
2024-01-09T11:10:25.670Z,1014.83
2024-01-09T11:11:25.842Z,1014.82
2024-01-09T11:12:25.681Z,1014.83
2024-01-09T11:13:25.659Z,1014.79
2024-01-09T11:14:25.702Z,1014.74
2024-01-09T11:15:25.723Z,1014.74
2024-01-09T11:16:25.633Z,1014.71
2024-01-09T11:17:25.679Z,1014.69
2024-01-09T11:18:26.699Z,1014.70
2024-01-09T11:19:25.678Z,1014.68
2024-01-09T11:20:25.716Z,1014.66
2024-01-09T11:21:25.640Z,1014.71
2024-01-09T11:22:25.714Z,1014.67
2024-01-09T11:23:25.735Z,1014.65
2024-01-09T11:24:25.642Z,1014.65
2024-01-09T11:25:25.522Z,1014.64
2024-01-09T11:26:25.627Z,1014.62
2024-01-09T11:27:25.589Z,1014.65
2024-01-09T11:28:25.492Z,1014.66
2024-01-09T11:29:25.500Z,1014.67
2024-01-09T11:30:25.529Z,1014.66
2024-01-09T11:31:25.548Z,1014.65
2024-01-09T11:32:25.662Z,1014.68
2024-01-09T11:33:25.601Z,1014.68
2024-01-09T11:34:25.504Z,1014.66
2024-01-09T11:35:25.464Z,1014.67
2024-01-09T11:36:25.434Z,1014.57
2024-01-09T11:37:25.391Z,1014.58
2024-01-09T11:38:25.439Z,1014.53
2024-01-09T11:39:25.372Z,1014.57
2024-01-09T11:40:25.372Z,1014.55
2024-01-09T11:41:25.436Z,1014.56
2024-01-09T11:42:25.352Z,1014.57
2024-01-09T11:43:25.350Z,1014.50
2024-01-09T11:44:25.349Z,1014.51
2024-01-09T11:45:25.351Z,1014.46
2024-01-09T11:46:25.344Z,1014.42
2024-01-09T11:47:25.366Z,1014.44
2024-01-09T11:48:25.403Z,1014.36
2024-01-09T11:49:25.435Z,1014.35
2024-01-09T11:50:25.369Z,1014.34
2024-01-09T11:51:25.264Z,1014.37
2024-01-09T11:52:25.239Z,1014.38
2024-01-09T11:53:25.277Z,1014.34
2024-01-09T11:54:25.218Z,1014.33
2024-01-09T11:55:25.223Z,1014.35
2024-01-09T11:56:25.221Z,1014.34
2024-01-09T11:57:25.173Z,1014.32
2024-01-09T11:58:25.205Z,1014.33
2024-01-09T11:59:25.319Z,1014.32
2024-01-09T12:00:25.142Z,1014.25
2024-01-09T12:01:25.281Z,1014.26
2024-01-09T12:02:25.224Z,1014.25
2024-01-09T12:03:25.103Z,1014.20
2024-01-09T12:04:25.138Z,1014.21
2024-01-09T12:05:25.123Z,1014.21
2024-01-09T12:06:25.197Z,1014.20